Time;durP1;ratioP1;P1;durP2;ratioP2;P2;SDS_P1;SDS_P2;PMS_P1;PMS_P2;Temp;Humidity;BMP_temperature;BMP_pressure;BME280_temperature;BME280_humidity;BME280_pressure;Samples;Min_cycle;Max_cycle;Signal;HPM_P1;HPM_P2
2022/05/02 00:00:55;;;;;;;14.77;11.50;;;8.70;99.90;;;;;;5028719;28;20627;-74
2022/05/02 00:03:21;;;;;;;16.50;12.03;;;8.90;99.90;;;;;;5010955;28;20440;-74
2022/05/02 00:05:47;;;;;;;14.10;11.57;;;8.90;99.90;;;;;;4994494;28;20182;-74
2022/05/02 00:08:13;;;;;;;18.40;13.50;;;8.80;99.90;;;;;;5028661;28;20200;-74
2022/05/02 00:10:39;;;;;;;19.63;12.80;;;8.90;99.90;;;;;;5028437;28;20913;-74
2022/05/02 00:13:06;;;;;;;14.00;12.00;;;8.80;99.90;;;;;;5028939;28;20233;-74
2022/05/02 00:15:32;;;;;;;17.13;10.80;;;8.80;99.90;;;;;;5028477;28;20628;-74
2022/05/02 00:18:01;;;;;;;13.33;10.90;;;8.80;99.90;;;;;;5028426;28;20553;-74
2022/05/02 00:20:30;;;;;;;17.57;12.10;;;8.80;99.90;;;;;;5010481;28;20666;-74
2022/05/02 00:22:57;;;;;;;25.43;12.80;;;8.90;99.90;;;;;;5028471;28;20462;-74
2022/05/02 00:25:23;;;;;;;20.77;12.87;;;8.90;99.90;;;;;;5028141;28;20439;-73
2022/05/02 00:27:50;;;;;;;16.57;13.17;;;8.80;99.90;;;;;;5028533;28;20542;-74
2022/05/02 00:30:16;;;;;;;17.97;13.47;;;8.70;99.90;;;;;;5028541;28;20428;-75
2022/05/02 00:32:42;;;;;;;16.97;12.20;;;8.70;99.90;;;;;;5028449;28;20416;-74
2022/05/02 00:35:09;;;;;;;16.63;11.60;;;8.70;99.90;;;;;;5010531;28;20553;-75
2022/05/02 00:37:38;;;;;;;17.50;11.50;;;8.60;99.90;;;;;;5010409;28;20443;-75
2022/05/02 00:40:10;;;;;;;15.27;12.53;;;8.60;99.90;;;;;;5028358;28;20489;-75
2022/05/02 00:42:35;;;;;;;14.27;11.40;;;8.70;99.90;;;;;;5028188;28;21013;-74
2022/05/02 00:45:03;;;;;;;16.60;12.20;;;8.70;99.90;;;;;;5010488;28;20447;-74
2022/05/02 00:47:29;;;;;;;15.13;11.50;;;8.80;99.90;;;;;;5028210;28;20412;-74
2022/05/02 00:49:54;;;;;;;15.70;11.50;;;8.80;99.90;;;;;;5010597;28;20432;-75
2022/05/02 00:52:20;;;;;;;14.33;12.03;;;8.70;99.90;;;;;;5028445;28;20242;-75
2022/05/02 00:54:46;;;;;;;17.97;12.70;;;8.60;99.90;;;;;;5028346;28;20184;-75
2022/05/02 00:57:13;;;;;;;14.93;12.93;;;8.70;99.90;;;;;;5028413;28;20219;-75
2022/05/02 00:59:39;;;;;;;14.03;11.80;;;8.60;99.90;;;;;;5027978;28;20257;-75
2022/05/02 01:02:07;;;;;;;18.23;12.50;;;8.60;99.90;;;;;;5028348;28;20896;-75
2022/05/02 01:04:34;;;;;;;15.97;12.40;;;8.50;99.90;;;;;;5028510;28;20905;-75
2022/05/02 01:07:10;;;;;;;15.70;12.30;;;8.50;99.90;;;;;;5029450;28;20416;-75
2022/05/02 01:09:38;;;;;;;17.10;12.03;;;8.40;99.90;;;;;;5011866;28;20447;-75
2022/05/02 01:12:09;;;;;;;14.50;12.47;;;8.40;99.90;;;;;;5028150;28;20420;-75
2022/05/02 01:14:35;;;;;;;15.57;11.00;;;8.40;99.90;;;;;;5027957;28;20415;-75
2022/05/02 01:17:03;;;;;;;13.93;12.10;;;8.40;99.90;;;;;;5027929;28;20424;-75
2022/05/02 01:19:28;;;;;;;13.30;11.83;;;8.50;99.90;;;;;;5028075;28;20435;-74
2022/05/02 01:21:54;;;;;;;18.73;12.50;;;8.50;99.90;;;;;;5013866;28;20503;-75
2022/05/02 01:24:20;;;;;;;14.17;12.67;;;8.60;99.90;;;;;;5014666;28;20223;-75
2022/05/02 01:26:45;;;;;;;17.07;12.80;;;8.50;99.90;;;;;;5032455;28;20200;-75
2022/05/02 01:29:11;;;;;;;14.50;11.83;;;8.50;99.90;;;;;;5032251;28;20197;-76
2022/05/02 01:31:36;;;;;;;13.43;11.30;;;8.60;99.90;;;;;;5032391;28;20191;-75
2022/05/02 01:34:02;;;;;;;14.00;11.60;;;8.50;99.90;;;;;;5032383;28;20180;-75
2022/05/02 01:36:28;;;;;;;17.60;12.63;;;8.50;99.90;;;;;;5032131;28;20531;-74
2022/05/02 01:38:54;;;;;;;13.83;11.63;;;8.50;99.90;;;;;;5014466;28;20200;-75
2022/05/02 01:41:19;;;;;;;18.47;13.03;;;8.40;99.90;;;;;;5032214;28;20541;-75
2022/05/02 01:43:45;;;;;;;17.63;13.40;;;8.30;99.90;;;;;;5014068;28;20220;-75
2022/05/02 01:46:12;;;;;;;15.43;13.00;;;8.30;99.90;;;;;;5014151;28;20721;-75
2022/05/02 01:48:38;;;;;;;16.03;13.53;;;8.10;99.90;;;;;;5032184;28;20223;-74
2022/05/02 01:51:04;;;;;;;15.77;13.00;;;8.20;99.90;;;;;;5013926;28;20507;-73
2022/05/02 01:53:30;;;;;;;19.30;13.13;;;8.10;99.90;;;;;;5032079;28;21000;-74
2022/05/02 01:55:56;;;;;;;14.80;11.83;;;8.10;99.90;;;;;;5032112;28;20219;-77
2022/05/02 01:58:22;;;;;;;16.63;13.00;;;8.10;99.90;;;;;;5032110;28;21320;-75
2022/05/02 02:00:47;;;;;;;15.90;13.00;;;8.10;99.90;;;;;;5013745;28;20670;-74
2022/05/02 02:03:13;;;;;;;17.60;14.33;;;8.00;99.90;;;;;;5031653;28;20200;-74
2022/05/02 02:05:48;;;;;;;22.33;13.80;;;8.00;99.90;;;;;;5013992;28;20173;-75
2022/05/02 02:08:15;;;;;;;17.47;13.27;;;8.00;99.90;;;;;;5031755;28;20204;-76
2022/05/02 02:10:41;;;;;;;17.77;14.60;;;8.00;99.90;;;;;;5031893;28;20415;-75
2022/05/02 02:13:06;;;;;;;20.93;15.00;;;8.00;99.90;;;;;;5014579;28;20469;-75
2022/05/02 02:15:32;;;;;;;19.23;13.90;;;8.00;99.90;;;;;;5034494;28;20455;-75
2022/05/02 02:17:58;;;;;;;15.47;12.23;;;8.00;99.90;;;;;;5033654;28;20307;-75
2022/05/02 02:20:23;;;;;;;17.00;12.90;;;8.00;99.90;;;;;;5017181;28;20624;-75
2022/05/02 02:22:49;;;;;;;16.47;12.20;;;8.10;99.90;;;;;;5034157;28;20205;-75
2022/05/02 02:25:14;;;;;;;17.83;13.40;;;8.00;99.90;;;;;;5033349;28;20207;-76
2022/05/02 02:27:40;;;;;;;19.03;13.17;;;8.00;99.90;;;;;;5032986;28;20205;-75
2022/05/02 02:30:07;;;;;;;17.20;14.30;;;8.00;99.90;;;;;;5033101;28;20193;-76
2022/05/02 02:32:32;;;;;;;18.47;14.20;;;8.00;99.90;;;;;;5014111;28;20192;-75
2022/05/02 02:34:58;;;;;;;14.53;12.90;;;8.00;99.90;;;;;;5013680;28;20421;-75
2022/05/02 02:37:24;;;;;;;21.67;12.73;;;8.00;99.90;;;;;;5031638;28;20223;-75
2022/05/02 02:39:50;;;;;;;18.07;13.63;;;8.00;99.90;;;;;;5013638;28;20430;-75
2022/05/02 02:42:16;;;;;;;16.13;13.73;;;8.00;99.90;;;;;;5031302;28;20187;-75
2022/05/02 02:44:42;;;;;;;15.63;13.03;;;8.00;99.90;;;;;;5031404;28;20493;-75
2022/05/02 02:47:07;;;;;;;24.17;14.60;;;8.10;99.90;;;;;;5013553;28;20908;-75
2022/05/02 02:49:33;;;;;;;22.10;13.17;;;8.20;99.90;;;;;;5031047;28;20193;-76
2022/05/02 02:51:59;;;;;;;21.30;15.03;;;8.20;99.90;;;;;;5031295;28;20189;-76
2022/05/02 02:54:24;;;;;;;23.77;15.50;;;8.10;99.90;;;;;;5013082;28;20188;-76
2022/05/02 02:56:50;;;;;;;19.10;15.37;;;8.00;99.90;;;;;;5031071;28;20271;-76
2022/05/02 02:59:15;;;;;;;18.80;14.43;;;8.00;99.90;;;;;;5030615;28;20693;-76
2022/05/02 03:01:41;;;;;;;20.90;15.00;;;8.00;99.90;;;;;;5030483;28;20192;-75
2022/05/02 03:06:53;;;;;;;20.73;15.23;;;8.00;99.90;;;;;;5030641;28;20406;-75
2022/05/02 03:09:19;;;;;;;21.50;17.50;;;8.10;99.90;;;;;;5012449;28;21148;-75
2022/05/02 03:11:45;;;;;;;19.70;15.17;;;8.10;99.90;;;;;;5030219;28;20494;-75
2022/05/02 03:14:10;;;;;;;21.20;15.47;;;8.10;99.90;;;;;;5012261;28;20231;-74
2022/05/02 03:16:36;;;;;;;21.87;16.00;;;8.20;99.90;;;;;;5029844;28;20787;-75
2022/05/02 03:19:02;;;;;;;21.43;14.67;;;8.30;99.90;;;;;;5029844;28;20205;-76
2022/05/02 03:21:27;;;;;;;19.17;15.10;;;8.30;99.90;;;;;;5012202;28;20208;-75
2022/05/02 03:23:53;;;;;;;19.53;15.83;;;8.20;99.90;;;;;;5029879;28;20269;-76
2022/05/02 03:26:19;;;;;;;20.23;15.20;;;8.20;99.90;;;;;;5012117;28;20205;-76
2022/05/02 03:28:45;;;;;;;29.83;15.67;;;8.20;99.90;;;;;;5012315;28;20205;-75
2022/05/02 03:31:10;;;;;;;21.43;14.57;;;8.20;99.90;;;;;;5012270;28;20222;-75
2022/05/02 03:33:36;;;;;;;19.47;15.00;;;8.20;99.90;;;;;;5012431;28;20427;-76
2022/05/02 03:36:02;;;;;;;17.57;14.73;;;8.10;99.90;;;;;;5030167;28;20199;-77
2022/05/02 03:38:27;;;;;;;17.97;14.73;;;8.00;99.90;;;;;;5012254;28;20295;-77
2022/05/02 03:40:53;;;;;;;21.67;15.67;;;8.00;99.90;;;;;;5012392;28;20426;-75
2022/05/02 03:43:19;;;;;;;18.83;15.40;;;7.90;99.90;;;;;;5029410;28;20725;-76
2022/05/02 03:45:44;;;;;;;18.13;14.80;;;7.90;99.90;;;;;;5029734;28;20184;-76
2022/05/02 03:48:10;;;;;;;20.77;16.10;;;7.90;99.90;;;;;;5030346;28;20207;-76
2022/05/02 03:50:35;;;;;;;20.70;15.90;;;7.80;99.90;;;;;;5029950;28;20653;-76
2022/05/02 03:53:01;;;;;;;18.57;15.13;;;7.70;99.90;;;;;;5012296;28;20188;-75
2022/05/02 03:55:27;;;;;;;17.30;14.83;;;7.70;99.90;;;;;;5030010;28;20674;-75
2022/05/02 03:57:52;;;;;;;20.90;16.27;;;7.60;99.90;;;;;;5029539;28;20291;-76
2022/05/02 04:00:18;;;;;;;24.67;16.30;;;7.60;99.90;;;;;;5029809;28;20238;-76
2022/05/02 04:02:44;;;;;;;24.80;15.90;;;7.50;99.90;;;;;;5012013;28;20211;-76
2022/05/02 04:05:10;;;;;;;28.73;17.37;;;7.40;99.90;;;;;;5029560;28;20422;-77
2022/05/02 04:07:36;;;;;;;18.80;14.80;;;7.40;99.90;;;;;;5011715;28;20428;-76
2022/05/02 04:10:03;;;;;;;16.73;13.50;;;7.40;99.90;;;;;;5028617;28;20181;-77
2022/05/02 04:12:39;;;;;;;20.47;15.57;;;7.30;99.90;;;;;;5011723;28;20419;-74
2022/05/02 04:15:06;;;;;;;20.17;14.30;;;7.30;99.90;;;;;;5029448;28;20512;-75
2022/05/02 04:17:31;;;;;;;20.73;15.70;;;7.30;99.90;;;;;;5011959;28;20513;-76
2022/05/02 04:19:57;;;;;;;18.07;14.57;;;7.20;99.90;;;;;;5029640;28;20888;-77
2022/05/02 04:22:23;;;;;;;20.97;16.17;;;7.20;99.90;;;;;;5029565;28;20286;-76
2022/05/02 04:24:48;;;;;;;18.23;13.30;;;7.20;99.90;;;;;;5029949;28;20202;-76
2022/05/02 04:27:14;;;;;;;16.87;13.73;;;7.20;99.90;;;;;;5013525;28;20175;-77
2022/05/02 04:29:39;;;;;;;20.90;14.90;;;7.20;99.90;;;;;;5029684;28;20200;-77
2022/05/02 04:32:05;;;;;;;18.87;14.50;;;7.20;99.90;;;;;;5029776;28;20181;-77
2022/05/02 04:34:31;;;;;;;17.30;14.70;;;7.20;99.90;;;;;;5029168;28;20181;-76
2022/05/02 04:36:57;;;;;;;15.10;13.33;;;7.30;99.90;;;;;;5028472;28;20502;-77
2022/05/02 04:39:22;;;;;;;23.03;15.20;;;7.20;99.90;;;;;;5028197;28;20213;-76
2022/05/02 04:41:48;;;;;;;20.67;16.00;;;7.10;99.90;;;;;;5028809;28;20203;-76
2022/05/02 04:44:14;;;;;;;26.10;16.07;;;7.20;99.90;;;;;;5010916;28;20215;-76
2022/05/02 04:46:39;;;;;;;21.30;15.97;;;7.20;99.90;;;;;;5010734;28;20223;-76
2022/05/02 04:49:05;;;;;;;18.00;14.37;;;7.20;99.90;;;;;;5010950;28;20204;-77
2022/05/02 04:51:31;;;;;;;21.30;16.00;;;7.20;99.90;;;;;;5011028;28;20434;-77
2022/05/02 04:53:56;;;;;;;24.10;17.20;;;7.20;99.90;;;;;;5028597;28;20595;-76
2022/05/02 04:56:22;;;;;;;23.57;16.73;;;7.20;99.90;;;;;;5013495;28;20235;-77
2022/05/02 04:58:48;;;;;;;23.67;17.73;;;7.20;99.90;;;;;;5032377;28;20262;-76
2022/05/02 05:01:14;;;;;;;23.60;16.73;;;7.20;99.90;;;;;;5032370;28;20416;-76
2022/05/02 05:03:39;;;;;;;19.43;15.80;;;7.20;99.90;;;;;;5014135;28;20212;-78
2022/05/02 05:06:06;;;;;;;27.13;17.07;;;7.30;99.90;;;;;;5032178;28;20180;-77
2022/05/02 05:08:32;;;;;;;20.30;16.13;;;7.20;99.90;;;;;;5031852;28;20201;-76
2022/05/02 05:11:00;;;;;;;23.10;15.73;;;7.20;99.90;;;;;;5031733;28;20415;-76
2022/05/02 05:13:38;;;;;;;24.03;17.93;;;7.30;99.90;;;;;;5031665;28;20191;-77
2022/05/02 05:16:21;;;;;;;25.03;16.30;;;7.30;99.90;;;;;;5031539;28;20415;-76
2022/05/02 05:19:20;;;;;;;21.00;16.40;;;7.40;99.90;;;;;;5031442;28;20940;-76
2022/05/02 05:22:14;;;;;;;18.23;15.03;;;7.50;99.90;;;;;;5013460;28;20423;-77
2022/05/02 05:24:55;;;;;;;19.30;15.80;;;7.80;99.90;;;;;;5031056;28;20427;-77
2022/05/02 05:27:44;;;;;;;19.80;15.20;;;7.90;99.90;;;;;;5013036;28;20501;-78
2022/05/02 05:30:10;;;;;;;18.93;15.10;;;8.00;99.90;;;;;;5015311;28;20423;-77
2022/05/02 05:33:09;;;;;;;17.67;14.63;;;8.20;99.90;;;;;;5031139;28;20480;-77
2022/05/02 05:35:49;;;;;;;18.80;15.17;;;8.30;99.90;;;;;;5013049;28;20414;-76
2022/05/02 05:38:53;;;;;;;22.27;15.87;;;8.50;99.90;;;;;;5030828;28;20435;-77
2022/05/02 05:41:42;;;;;;;17.80;15.00;;;8.70;99.90;;;;;;5015325;28;20455;-77
2022/05/02 05:44:17;;;;;;;20.33;16.40;;;8.90;99.90;;;;;;5030652;28;20631;-77
2022/05/02 05:47:10;;;;;;;28.20;16.40;;;9.00;99.90;;;;;;5012635;28;20422;-77
2022/05/02 05:49:57;;;;;;;24.33;15.63;;;9.20;99.90;;;;;;5030616;28;20439;-77
2022/05/02 05:52:40;;;;;;;19.67;15.73;;;9.40;99.90;;;;;;5012621;28;20427;-77
2022/05/02 05:55:11;;;;;;;18.77;15.07;;;9.70;99.90;;;;;;5030240;28;20439;-77
2022/05/02 05:58:02;;;;;;;19.77;15.20;;;9.80;99.90;;;;;;5030275;28;20434;-77
2022/05/02 06:00:34;;;;;;;22.53;15.17;;;10.00;99.90;;;;;;5030200;28;20550;-76
2022/05/02 06:03:17;;;;;;;18.43;14.30;;;10.00;99.90;;;;;;5029712;28;20484;-76
2022/05/02 06:05:46;;;;;;;18.17;14.40;;;10.20;99.90;;;;;;5012022;28;20447;-77
2022/05/02 06:08:22;;;;;;;16.60;14.80;;;10.20;99.90;;;;;;5028525;28;20435;-77
2022/05/02 06:10:50;;;;;;;22.63;14.07;;;10.50;99.90;;;;;;5011645;28;20423;-76
2022/05/02 06:13:18;;;;;;;16.00;13.90;;;10.60;99.90;;;;;;4995345;28;20789;-76
2022/05/02 06:18:37;;;;;;;18.63;14.60;;;10.90;99.90;;;;;;5014385;28;20519;-76
2022/05/02 06:21:05;;;;;;;21.63;14.90;;;11.10;99.90;;;;;;5029698;28;20423;-76
2022/05/02 06:23:44;;;;;;;22.70;14.90;;;11.20;99.90;;;;;;5029739;28;20455;-77
2022/05/02 06:26:10;;;;;;;17.53;14.50;;;11.40;99.90;;;;;;4995594;28;20442;-76
2022/05/02 06:28:46;;;;;;;19.63;14.20;;;11.50;99.90;;;;;;5029084;28;20458;-76
2022/05/02 06:31:18;;;;;;;25.97;15.53;;;11.70;99.90;;;;;;5011494;28;20937;-76
2022/05/02 06:33:48;;;;;;;17.33;15.03;;;11.80;99.90;;;;;;5029286;28;20452;-77
2022/05/02 06:36:30;;;;;;;16.17;13.10;;;12.00;99.90;;;;;;5029461;28;20419;-76
2022/05/02 06:39:08;;;;;;;17.67;14.40;;;12.10;99.90;;;;;;5029389;28;20461;-76
2022/05/02 06:41:34;;;;;;;18.33;14.80;;;12.40;99.90;;;;;;5029366;28;20932;-77
2022/05/02 06:44:05;;;;;;;22.23;14.20;;;12.50;99.90;;;;;;5011562;28;20468;-76
2022/05/02 06:46:57;;;;;;;18.37;14.67;;;12.60;99.90;;;;;;5029399;28;20178;-76
2022/05/02 06:49:24;;;;;;;27.73;14.07;;;12.70;99.90;;;;;;5014053;28;20453;-76
2022/05/02 06:51:53;;;;;;;17.20;14.10;;;12.80;99.90;;;;;;5033288;28;20514;-77
2022/05/02 06:54:22;;;;;;;20.33;12.83;;;12.80;99.90;;;;;;5033600;28;20427;-76
2022/05/02 06:57:02;;;;;;;14.90;12.13;;;13.10;99.90;;;;;;5034396;28;20420;-76
2022/05/02 06:59:40;;;;;;;17.50;12.17;;;13.20;99.90;;;;;;5033346;28;20453;-76
2022/05/02 07:02:41;;;;;;;15.33;13.47;;;13.20;99.90;;;;;;5033077;28;20416;-76
2022/05/02 07:05:29;;;;;;;16.30;12.47;;;13.10;99.90;;;;;;5013255;28;20428;-76
2022/05/02 07:08:05;;;;;;;19.47;13.63;;;12.80;99.90;;;;;;5029098;28;20437;-76
2022/05/02 07:10:41;;;;;;;16.03;14.17;;;12.70;99.90;;;;;;5028674;28;20397;-76
2022/05/02 07:13:44;;;;;;;17.07;14.27;;;12.50;99.90;;;;;;5028048;28;20420;-76
2022/05/02 07:16:32;;;;;;;16.13;13.03;;;12.60;99.90;;;;;;5028272;28;20471;-77
2022/05/02 07:19:03;;;;;;;18.60;11.90;;;12.60;99.90;;;;;;5010105;28;21140;-77
2022/05/02 07:21:44;;;;;;;15.03;13.30;;;12.70;99.90;;;;;;5028319;28;20414;-76
2022/05/02 07:24:22;;;;;;;14.67;12.93;;;12.70;99.90;;;;;;5028255;28;20879;-75
2022/05/02 07:27:26;;;;;;;14.03;12.37;;;12.70;99.90;;;;;;5028209;28;20440;-76
2022/05/02 07:29:57;;;;;;;13.70;11.70;;;12.80;99.90;;;;;;5010333;28;20877;-76
2022/05/02 07:32:24;;;;;;;15.83;12.30;;;12.90;99.90;;;;;;5010533;28;20429;-77
2022/05/02 07:34:52;;;;;;;18.63;11.90;;;12.90;99.90;;;;;;5028479;28;20426;-76
2022/05/02 07:37:23;;;;;;;16.03;12.70;;;13.10;99.90;;;;;;5027919;28;20492;-77
2022/05/02 07:39:50;;;;;;;18.23;13.03;;;13.40;99.90;;;;;;5009997;28;20846;-76
2022/05/02 07:42:18;;;;;;;17.40;12.40;;;13.50;99.90;;;;;;5009539;28;20427;-76
2022/05/02 07:44:46;;;;;;;18.97;12.47;;;13.50;99.90;;;;;;5027890;28;20431;-76
2022/05/02 07:47:15;;;;;;;15.53;13.93;;;13.50;99.90;;;;;;5009629;28;20529;-76
2022/05/02 07:49:46;;;;;;;15.10;12.13;;;13.50;99.90;;;;;;5027516;28;20882;-77
2022/05/02 07:52:21;;;;;;;15.03;12.43;;;13.60;99.90;;;;;;5027473;28;20436;-76
2022/05/02 07:54:48;;;;;;;13.57;12.10;;;14.00;99.90;;;;;;5010742;28;20476;-76
2022/05/02 07:57:15;;;;;;;17.20;12.53;;;14.30;99.90;;;;;;5027428;28;20984;-76
2022/05/02 07:59:42;;;;;;;15.63;12.40;;;14.40;99.90;;;;;;5027343;28;20442;-76
2022/05/02 08:02:08;;;;;;;15.17;12.10;;;14.20;99.90;;;;;;5027797;28;20498;-76
2022/05/02 08:04:40;;;;;;;18.03;12.97;;;14.40;99.90;;;;;;5029382;28;20487;-76
2022/05/02 08:07:44;;;;;;;15.43;12.43;;;14.50;99.90;;;;;;5027717;28;20450;-76
2022/05/02 08:10:41;;;;;;;19.40;14.03;;;14.60;99.90;;;;;;5008496;28;20419;-76
2022/05/02 08:13:44;;;;;;;16.60;13.20;;;15.00;99.90;;;;;;5027459;28;20411;-76
2022/05/02 08:16:13;;;;;;;13.03;10.37;;;15.30;99.90;;;;;;5027318;28;20415;-78
2022/05/02 08:18:53;;;;;;;14.13;10.87;;;15.70;99.90;;;;;;5009239;28;20963;-76
2022/05/02 08:21:38;;;;;;;13.30;11.63;;;15.90;99.90;;;;;;5027327;28;20763;-77
2022/05/02 08:27:33;;;;;;;18.17;12.37;;;16.00;99.90;;;;;;5027695;28;20449;-76
2022/05/02 08:30:07;;;;;;;16.53;11.80;;;15.80;99.90;;;;;;5029430;28;20426;-77
2022/05/02 08:32:44;;;;;;;14.43;12.30;;;16.20;99.90;;;;;;5034245;28;20434;-76
2022/05/02 08:35:21;;;;;;;13.47;12.10;;;16.50;99.90;;;;;;5033986;28;20429;-77
2022/05/02 08:38:24;;;;;;;16.30;13.27;;;16.50;99.90;;;;;;5015786;28;20463;-77
2022/05/02 08:41:08;;;;;;;15.83;13.20;;;16.40;99.90;;;;;;5034040;28;20942;-77
2022/05/02 08:44:05;;;;;;;18.53;13.73;;;16.60;99.90;;;;;;5015998;28;20844;-76
2022/05/02 08:47:07;;;;;;;13.73;12.30;;;16.70;99.90;;;;;;5015918;28;20423;-77
2022/05/02 08:49:54;;;;;;;18.17;12.10;;;17.20;99.90;;;;;;5033763;28;20438;-76
2022/05/02 08:52:52;;;;;;;20.10;12.30;;;17.50;99.90;;;;;;5033779;28;20408;-77
2022/05/02 08:55:30;;;;;;;17.00;13.00;;;17.70;99.70;;;;;;5012588;28;20439;-77
2022/05/02 08:58:17;;;;;;;16.47;13.17;;;17.50;97.90;;;;;;5016003;28;20446;-77
2022/05/02 09:01:11;;;;;;;15.70;12.63;;;17.20;99.30;;;;;;5033786;28;20966;-76
2022/05/02 09:04:14;;;;;;;15.63;12.47;;;17.10;99.90;;;;;;5033574;28;20470;-76
2022/05/02 09:07:32;;;;;;;16.90;12.93;;;17.70;99.90;;;;;;5033472;28;20413;-77
2022/05/02 09:10:01;;;;;;;14.60;11.30;;;18.20;98.20;;;;;;4961894;28;20805;-77
2022/05/02 09:12:45;;;;;;;18.03;12.13;;;18.50;97.60;;;;;;5033727;28;20929;-77
2022/05/02 09:15:30;;;;;;;17.67;14.07;;;18.50;97.80;;;;;;5015634;28;20475;-76
2022/05/02 09:18:33;;;;;;;15.83;12.50;;;18.20;97.30;;;;;;5033200;28;20527;-76
2022/05/02 09:21:10;;;;;;;15.53;12.97;;;18.10;98.20;;;;;;5033411;28;20526;-76
2022/05/02 09:23:54;;;;;;;13.30;11.60;;;17.80;98.60;;;;;;5033686;28;21015;-76
2022/05/02 09:26:35;;;;;;;13.70;11.43;;;18.10;98.90;;;;;;5033588;28;20961;-76
2022/05/02 09:29:18;;;;;;;21.50;12.57;;;18.70;96.90;;;;;;5033251;28;21366;-76
2022/05/02 09:32:17;;;;;;;17.97;12.40;;;18.40;96.70;;;;;;5033428;28;20402;-77
2022/05/02 09:34:56;;;;;;;22.80;13.00;;;18.00;96.90;;;;;;5033420;28;21133;-76
2022/05/02 09:37:35;;;;;;;15.73;12.73;;;18.20;99.90;;;;;;5033344;28;20458;-77
2022/05/02 09:40:09;;;;;;;14.60;11.73;;;18.50;98.30;;;;;;5032940;28;20411;-76
2022/05/02 09:42:50;;;;;;;15.37;12.07;;;18.30;97.40;;;;;;5012609;28;21219;-77
2022/05/02 09:51:38;;;;;;;13.83;12.40;;;18.10;99.10;;;;;;5030563;28;20414;-76
2022/05/02 09:57:30;;;;;;;13.83;11.93;;;18.40;97.70;;;;;;4988064;28;20540;-77
2022/05/02 10:02:48;;;;;;;18.00;12.57;;;18.60;98.10;;;;;;5030321;28;20626;-77
2022/05/02 10:05:53;;;;;;;12.93;11.60;;;18.80;97.10;;;;;;5030303;28;20421;-77
2022/05/02 10:08:48;;;;;;;13.90;11.93;;;18.50;98.00;;;;;;5029158;28;20475;-77
2022/05/02 10:11:35;;;;;;;23.70;12.67;;;18.20;98.50;;;;;;5025245;28;20953;-77
2022/05/02 10:14:27;;;;;;;14.10;12.07;;;18.40;98.20;;;;;;5030034;28;20425;-77
2022/05/02 10:17:07;;;;;;;13.57;12.17;;;18.40;97.10;;;;;;5029746;28;20507;-75
2022/05/02 10:19:38;;;;;;;12.70;10.47;;;19.30;97.40;;;;;;5029778;28;20450;-75
2022/05/02 10:22:28;;;;;;;17.00;12.07;;;20.00;94.50;;;;;;5029443;28;20425;-77
2022/05/02 10:25:11;;;;;;;12.77;11.17;;;20.20;93.60;;;;;;5011233;28;20511;-77
2022/05/02 10:27:58;;;;;;;12.57;10.70;;;20.40;92.90;;;;;;5029210;28;20398;-77
2022/05/02 10:30:29;;;;;;;15.57;12.20;;;20.90;93.10;;;;;;5029171;28;20415;-74
2022/05/02 10:32:58;;;;;;;12.33;11.10;;;20.50;88.50;;;;;;5028980;28;20520;-74
2022/05/02 10:35:26;;;;;;;12.47;10.67;;;20.00;92.50;;;;;;5028886;28;20414;-74
2022/05/02 10:37:55;;;;;;;14.27;10.50;;;20.00;92.70;;;;;;5011396;28;20508;-75
2022/05/02 10:40:38;;;;;;;10.13;9.13;;;20.10;93.50;;;;;;5029068;28;20553;-75
2022/05/02 10:43:08;;;;;;;10.53;9.40;;;20.10;92.10;;;;;;5028788;28;20465;-75
2022/05/02 10:45:36;;;;;;;11.00;9.90;;;19.60;91.80;;;;;;5028815;28;20406;-74
2022/05/02 10:48:13;;;;;;;12.10;9.63;;;19.40;92.60;;;;;;5028659;28;20442;-75
2022/05/02 10:50:39;;;;;;;9.50;8.50;;;19.50;92.00;;;;;;5028591;28;21078;-75
2022/05/02 10:53:30;;;;;;;10.50;8.73;;;19.70;92.40;;;;;;5028027;28;20431;-74
2022/05/02 10:56:30;;;;;;;10.43;9.37;;;19.90;92.10;;;;;;5010766;28;20190;-76
2022/05/02 10:59:01;;;;;;;9.60;8.50;;;19.80;91.90;;;;;;5010229;28;20469;-76
2022/05/02 11:01:45;;;;;;;15.50;8.47;;;19.90;91.40;;;;;;5028400;28;20429;-77
2022/05/02 11:04:30;;;;;;;9.50;8.33;;;19.80;90.90;;;;;;5010311;28;20464;-76
2022/05/02 11:07:08;;;;;;;12.70;9.70;;;20.40;90.70;;;;;;5028332;28;20409;-77
2022/05/02 11:09:52;;;;;;;10.90;9.60;;;20.70;88.20;;;;;;5028016;28;20486;-77
2022/05/02 11:12:22;;;;;;;10.63;8.50;;;20.50;89.10;;;;;;5011920;28;20514;-77
2022/05/02 11:14:51;;;;;;;11.47;8.43;;;20.10;89.00;;;;;;5010130;28;20426;-76
2022/05/02 11:17:25;;;;;;;8.60;7.40;;;19.70;89.40;;;;;;5027921;28;20415;-76
2022/05/02 11:23:05;;;;;;;11.63;8.97;;;19.40;91.10;;;;;;5030152;28;20461;-76
2022/05/02 11:25:39;;;;;;;7.40;6.70;;;19.20;90.20;;;;;;5029066;28;20443;-76
2022/05/02 11:28:30;;;;;;;10.50;8.57;;;19.10;91.60;;;;;;5029337;28;20437;-76
2022/05/02 11:31:21;;;;;;;9.77;8.70;;;19.00;91.50;;;;;;5032051;28;20457;-76
2022/05/02 11:34:12;;;;;;;10.47;9.23;;;18.90;91.90;;;;;;5029657;28;20452;-77
2022/05/02 11:36:46;;;;;;;10.20;7.90;;;19.10;92.00;;;;;;5019814;28;20443;-77
2022/05/02 11:39:20;;;;;;;9.50;8.30;;;19.60;92.00;;;;;;5028670;28;20531;-76
2022/05/02 11:41:50;;;;;;;9.50;8.50;;;19.60;91.10;;;;;;5028118;28;20422;-76
2022/05/02 11:44:16;;;;;;;11.13;7.80;;;19.20;90.70;;;;;;5027913;28;20461;-76
2022/05/02 11:47:11;;;;;;;17.60;7.80;;;19.30;90.40;;;;;;5031516;28;20429;-77
2022/05/02 11:50:10;;;;;;;7.73;7.03;;;19.10;91.10;;;;;;5010949;28;20476;-77
2022/05/02 11:52:38;;;;;;;7.70;6.90;;;19.20;90.90;;;;;;5027492;28;20456;-77
2022/05/02 11:55:06;;;;;;;7.33;6.07;;;19.70;90.10;;;;;;4993425;28;20502;-76
2022/05/02 11:57:41;;;;;;;6.90;6.20;;;19.90;86.10;;;;;;5027853;28;20419;-76
2022/05/02 12:00:08;;;;;;;7.50;6.30;;;20.00;85.10;;;;;;5027328;28;20421;-76
2022/05/02 12:02:51;;;;;;;6.67;6.07;;;19.80;87.10;;;;;;5027213;28;20419;-76
2022/05/02 12:05:52;;;;;;;5.83;5.23;;;19.60;85.80;;;;;;5026840;28;20426;-76
2022/05/02 12:08:38;;;;;;;7.17;6.47;;;19.40;87.40;;;;;;5027080;28;20466;-76
2022/05/02 12:11:10;;;;;;;6.63;6.00;;;19.30;89.50;;;;;;5009393;28;20486;-76
2022/05/02 12:13:44;;;;;;;6.20;5.60;;;19.20;88.90;;;;;;5009553;28;20440;-76
2022/05/02 12:16:12;;;;;;;5.90;5.30;;;19.20;88.00;;;;;;5027427;28;20422;-76
2022/05/02 12:18:45;;;;;;;6.50;5.50;;;19.20;88.50;;;;;;5009390;28;20454;-76
2022/05/02 12:21:17;;;;;;;5.20;4.80;;;19.30;88.70;;;;;;5009480;28;20946;-76
2022/05/02 12:23:45;;;;;;;7.80;4.90;;;19.80;90.20;;;;;;5027201;28;20475;-77
2022/05/02 12:26:19;;;;;;;7.50;4.80;;;20.80;87.00;;;;;;5027831;28;20441;-77
2022/05/02 12:28:51;;;;;;;7.30;5.20;;;20.80;80.50;;;;;;5027739;28;20454;-76
2022/05/02 12:31:28;;;;;;;6.97;6.10;;;20.50;82.70;;;;;;5027643;28;20493;-76
2022/05/02 12:34:01;;;;;;;9.07;5.70;;;20.20;83.00;;;;;;5009726;28;20422;-76
2022/05/02 12:36:46;;;;;;;5.57;5.03;;;19.90;83.00;;;;;;5027436;28;20422;-77
2022/05/02 12:39:45;;;;;;;5.57;4.30;;;19.70;82.70;;;;;;5027353;28;20872;-77
2022/05/02 12:42:12;;;;;;;7.40;5.17;;;19.60;87.00;;;;;;5026914;28;20438;-77
2022/05/02 12:44:44;;;;;;;7.20;4.70;;;19.50;85.80;;;;;;5009042;28;20562;-77
2022/05/02 12:47:19;;;;;;;5.20;4.70;;;19.50;83.40;;;;;;5009717;28;20435;-77
2022/05/02 12:50:17;;;;;;;4.63;4.23;;;19.40;83.90;;;;;;4992916;28;20441;-77
2022/05/02 12:52:48;;;;;;;8.70;5.03;;;19.70;85.40;;;;;;5027236;28;20496;-77
2022/05/02 12:55:15;;;;;;;5.00;4.50;;;20.50;86.40;;;;;;5027311;28;20415;-77
2022/05/02 13:00:48;;;;;;;7.10;4.70;;;20.60;83.20;;;;;;5027257;28;20449;-77
2022/05/02 13:03:14;;;;;;;5.87;4.80;;;20.20;83.70;;;;;;5027176;28;20472;-77
2022/05/02 13:06:00;;;;;;;4.57;3.57;;;20.50;85.40;;;;;;5027298;28;20399;-77
2022/05/02 13:08:33;;;;;;;4.13;3.83;;;21.00;84.10;;;;;;5027356;28;20975;-76
2022/05/02 13:11:13;;;;;;;3.50;3.20;;;20.90;82.60;;;;;;5027951;28;20442;-77
2022/05/02 13:13:49;;;;;;;4.50;3.80;;;20.70;80.50;;;;;;5027880;28;20516;-77
2022/05/02 13:16:26;;;;;;;3.93;3.53;;;20.50;81.40;;;;;;5028252;28;20415;-76
2022/05/02 13:18:53;;;;;;;3.80;3.50;;;20.30;80.60;;;;;;5030862;28;20452;-77
2022/05/02 13:21:20;;;;;;;4.60;3.80;;;20.10;80.90;;;;;;5012993;28;20427;-76
2022/05/02 13:23:47;;;;;;;4.90;3.30;;;20.30;83.70;;;;;;5013220;28;20536;-77
2022/05/02 13:26:33;;;;;;;3.17;2.87;;;20.90;81.60;;;;;;5030761;28;20431;-77
2022/05/02 13:29:13;;;;;;;7.50;4.03;;;21.40;80.70;;;;;;5030950;28;20466;-75
2022/05/02 13:31:42;;;;;;;3.60;3.30;;;21.30;78.40;;;;;;5031143;28;20490;-76
2022/05/02 13:34:31;;;;;;;3.23;2.93;;;20.90;77.40;;;;;;5012990;28;20963;-77
2022/05/02 13:37:12;;;;;;;5.33;3.87;;;20.60;79.20;;;;;;5030930;28;20411;-76